createdAt,value
2018-08-25T00:04:13.778Z,85.30
2018-08-25T00:09:10.093Z,88.80
2018-08-25T00:14:05.262Z,88.60
2018-08-25T00:19:00.772Z,88.70
2018-08-25T00:23:55.535Z,88.40
2018-08-25T00:28:49.877Z,88.90
2018-08-25T00:33:43.976Z,89.10
2018-08-25T00:38:38.362Z,89.70
2018-08-25T00:43:32.987Z,89.60
2018-08-25T00:48:42.091Z,89.90
2018-08-25T00:53:37.245Z,90.00
2018-08-25T00:58:32.297Z,90.50
2018-08-25T01:03:26.604Z,90.80
2018-08-25T01:08:21.154Z,91.00
2018-08-25T01:13:15.486Z,91.20
2018-08-25T01:18:17.533Z,91.20
2018-08-25T01:23:19.387Z,91.40
2018-08-25T01:28:14.111Z,91.50
2018-08-25T01:33:08.514Z,89.70
2018-08-25T01:38:03.060Z,88.60
2018-08-25T01:42:57.488Z,87.90
2018-08-25T01:47:58.874Z,88.00
2018-08-25T01:53:01.017Z,88.10
2018-08-25T01:57:58.537Z,88.60
2018-08-25T02:02:53.387Z,88.90
2018-08-25T02:07:48.057Z,89.10
2018-08-25T02:12:42.329Z,88.70
2018-08-25T02:17:36.781Z,88.70
2018-08-25T02:22:31.044Z,88.10
2018-08-25T02:27:25.392Z,87.50
2018-08-25T02:32:19.809Z,87.30
2018-08-25T02:37:14.338Z,88.00
2018-08-25T02:42:08.894Z,87.50
2018-08-25T02:47:05.343Z,87.90
2018-08-25T02:51:59.600Z,87.20
2018-08-25T02:56:54.209Z,87.70
2018-08-25T03:01:49.383Z,87.40
2018-08-25T03:06:44.017Z,87.10
2018-08-25T03:11:38.390Z,87.30
2018-08-25T03:16:33.009Z,88.40
2018-08-25T03:21:27.428Z,88.90
2018-08-25T03:26:21.917Z,89.00
2018-08-25T03:31:16.289Z,89.60
2018-08-25T03:36:10.710Z,90.80
2018-08-25T03:41:05.011Z,90.60
2018-08-25T03:45:59.272Z,91.70
2018-08-25T03:50:53.864Z,91.70
2018-08-25T03:55:48.672Z,91.80
2018-08-25T04:00:43.163Z,91.60
2018-08-25T04:05:37.768Z,91.90
2018-08-25T04:10:32.373Z,92.00
2018-08-25T04:15:26.946Z,92.30
2018-08-25T04:20:21.307Z,92.30
2018-08-25T04:25:17.317Z,92.30
2018-08-25T04:30:11.666Z,92.10
2018-08-25T04:35:06.320Z,92.60
2018-08-25T04:40:00.602Z,92.30
2018-08-25T04:45:02.200Z,91.80
2018-08-25T04:50:03.807Z,91.80
2018-08-25T04:54:58.341Z,91.60
2018-08-25T04:59:52.708Z,91.50
2018-08-25T05:04:47.190Z,91.70
2018-08-25T05:09:56.669Z,91.10
2018-08-25T05:14:51.374Z,91.20
2018-08-25T05:19:45.868Z,92.10
2018-08-25T05:24:40.063Z,92.10
2018-08-25T05:29:34.408Z,92.20
2018-08-25T05:34:28.657Z,92.50
2018-08-25T05:39:23.460Z,92.60
2018-08-25T05:44:17.815Z,92.00
2018-08-25T05:49:11.875Z,91.90
2018-08-25T05:54:06.624Z,91.80
2018-08-25T05:59:08.897Z,92.00
2018-08-25T06:04:03.344Z,91.70
2018-08-25T06:08:57.583Z,90.60
2018-08-25T06:13:52.242Z,90.30
2018-08-25T06:18:47.179Z,90.10
2018-08-25T06:23:49.251Z,89.90
2018-08-25T06:28:51.300Z,90.00
2018-08-25T06:33:45.589Z,90.10
2018-08-25T06:38:39.771Z,90.30
2018-08-25T06:43:34.465Z,90.00
2018-08-25T06:48:28.744Z,89.50
2018-08-25T06:53:23.400Z,89.20
2018-08-25T06:58:17.779Z,89.30
2018-08-25T07:03:12.027Z,87.70
2018-08-25T07:08:06.766Z,87.00
2018-08-25T07:13:01.376Z,85.20
2018-08-25T07:17:55.800Z,80.70
2018-08-25T07:22:50.954Z,76.70
2018-08-25T07:27:45.345Z,73.80
2018-08-25T07:32:40.658Z,73.60
2018-08-25T07:37:34.898Z,75.10
2018-08-25T07:42:29.577Z,75.70
2018-08-25T07:47:23.843Z,75.80
2018-08-25T07:52:18.359Z,76.20
2018-08-25T07:57:12.812Z,76.70
2018-08-25T08:02:07.620Z,76.40
2018-08-25T08:07:03.876Z,77.10
2018-08-25T08:11:58.579Z,76.40
2018-08-25T08:16:52.752Z,75.40
2018-08-25T08:21:47.284Z,74.30
2018-08-25T08:26:57.034Z,73.10
2018-08-25T08:32:14.937Z,71.80
2018-08-25T08:37:09.671Z,70.50
2018-08-25T08:42:04.883Z,69.90
2018-08-25T08:46:59.926Z,67.90
2018-08-25T08:51:54.316Z,68.00
2018-08-25T08:56:49.032Z,67.40
2018-08-25T09:01:43.352Z,66.50
2018-08-25T09:06:38.860Z,64.80
2018-08-25T09:11:33.568Z,64.70
2018-08-25T09:16:28.330Z,65.90
2018-08-25T09:21:22.896Z,64.80
2018-08-25T09:26:17.666Z,60.00
2018-08-25T09:31:12.753Z,58.10
2018-08-25T09:36:16.219Z,52.50
2018-08-25T09:41:26.551Z,48.40
2018-08-25T09:46:36.815Z,43.00
2018-08-25T09:51:31.653Z,42.50
2018-08-25T09:56:25.986Z,38.20
2018-08-25T10:01:25.645Z,36.00
2018-08-25T10:06:20.090Z,31.40
2018-08-25T10:11:14.689Z,26.40
2018-08-25T10:16:09.767Z,26.00
2018-08-25T10:21:06.033Z,26.70
2018-08-25T10:26:01.038Z,26.60
2018-08-25T10:30:55.502Z,26.20
2018-08-25T10:35:50.029Z,26.90
2018-08-25T10:40:44.108Z,28.60
2018-08-25T10:45:38.545Z,28.30
2018-08-25T10:50:33.304Z,30.10
2018-08-25T10:55:27.882Z,29.60
2018-08-25T11:00:22.568Z,31.00
2018-08-25T11:05:17.037Z,30.90
2018-08-25T11:10:11.428Z,31.10
2018-08-25T11:15:05.910Z,32.30
2018-08-25T11:20:00.555Z,34.00
2018-08-25T11:24:55.539Z,36.10
2018-08-25T11:29:50.182Z,36.50
2018-08-25T11:34:45.230Z,37.10
2018-08-25T11:39:39.568Z,34.40
2018-08-25T11:44:34.363Z,34.40
2018-08-25T11:49:28.793Z,36.20
2018-08-25T11:54:23.484Z,36.10
2018-08-25T11:59:18.381Z,37.60
2018-08-25T12:04:13.153Z,37.30
2018-08-25T12:09:10.556Z,36.80
2018-08-25T12:14:06.523Z,36.50
2018-08-25T12:19:01.118Z,38.30
2018-08-25T12:23:55.537Z,39.40
2018-08-25T12:28:49.755Z,40.90
2018-08-25T12:33:44.720Z,40.80
2018-08-25T12:38:39.601Z,40.40
2018-08-25T12:43:34.019Z,40.90
2018-08-25T12:48:28.320Z,41.10
2018-08-25T12:53:22.958Z,41.40
2018-08-25T12:58:17.384Z,42.80
2018-08-25T13:03:12.492Z,44.70
2018-08-25T13:08:07.496Z,43.40
2018-08-25T13:13:02.250Z,44.00
2018-08-25T13:17:56.598Z,45.60
2018-08-25T13:22:51.291Z,46.20
2018-08-25T13:27:45.636Z,46.30
2018-08-25T13:32:39.916Z,46.70
2018-08-25T13:37:34.678Z,47.20
2018-08-25T13:42:29.741Z,47.90
2018-08-25T13:47:24.100Z,48.80
2018-08-25T13:52:18.714Z,48.80
2018-08-25T13:57:13.033Z,49.70
2018-08-25T14:02:15.252Z,50.70
2018-08-25T14:07:32.097Z,51.20
2018-08-25T14:12:29.108Z,52.50
2018-08-25T14:17:23.568Z,52.60
2018-08-25T14:22:18.282Z,53.20
2018-08-25T14:27:12.720Z,52.10
2018-08-25T14:32:07.133Z,52.90
2018-08-25T14:37:01.621Z,53.50
2018-08-25T14:41:56.294Z,53.40
2018-08-25T14:46:50.544Z,54.30
2018-08-25T14:51:45.121Z,54.70
2018-08-25T14:56:40.062Z,55.30
2018-08-25T15:01:34.844Z,55.50
2018-08-25T15:06:29.537Z,55.60
2018-08-25T15:11:24.933Z,56.10
2018-08-25T15:16:19.496Z,55.70
2018-08-25T15:21:14.186Z,54.80
2018-08-25T15:26:08.893Z,54.10
2018-08-25T15:31:03.919Z,53.40
2018-08-25T15:35:58.514Z,54.20
2018-08-25T15:40:53.276Z,54.80
2018-08-25T15:45:47.699Z,54.60
2018-08-25T15:50:42.232Z,55.50
2018-08-25T15:55:37.393Z,55.90
2018-08-25T16:00:31.992Z,56.10
2018-08-25T16:05:26.485Z,56.30
2018-08-25T16:10:21.196Z,57.20
2018-08-25T16:15:16.065Z,57.70
2018-08-25T16:20:10.995Z,58.30
2018-08-25T16:25:07.336Z,58.90
2018-08-25T16:30:01.764Z,59.00
2018-08-25T16:34:56.044Z,59.20
2018-08-25T16:39:50.729Z,60.10
2018-08-25T16:44:45.892Z,58.90
2018-08-25T16:49:40.481Z,58.30
2018-08-25T16:54:35.095Z,57.60
2018-08-25T16:59:29.723Z,57.70
2018-08-25T17:04:24.148Z,57.70
2018-08-25T17:09:26.763Z,58.20
2018-08-25T17:14:22.996Z,58.70
2018-08-25T17:19:18.846Z,58.80
2018-08-25T17:24:13.508Z,59.80
2018-08-25T17:29:08.145Z,60.50
2018-08-25T17:34:10.108Z,61.10
2018-08-25T17:39:09.882Z,61.50
2018-08-25T17:44:06.071Z,62.20
2018-08-25T17:49:00.628Z,62.50
2018-08-25T17:53:55.073Z,63.00
2018-08-25T17:58:49.969Z,63.10
2018-08-25T18:03:44.907Z,63.50
2018-08-25T18:08:39.408Z,64.20
2018-08-25T18:13:34.482Z,64.30
2018-08-25T18:18:29.302Z,64.80
2018-08-25T18:23:23.872Z,64.80
2018-08-25T18:28:18.521Z,64.30
2018-08-25T18:33:12.954Z,63.90
2018-08-25T18:38:07.585Z,62.80
2018-08-25T18:43:01.963Z,64.20
2018-08-25T18:47:56.261Z,65.60
2018-08-25T18:52:50.700Z,66.90
2018-08-25T18:57:45.608Z,68.20
2018-08-25T19:02:40.263Z,68.90
2018-08-25T19:07:34.864Z,69.40
2018-08-25T19:12:29.692Z,69.00
2018-08-25T19:17:24.353Z,69.70
2018-08-25T19:22:19.020Z,69.10
2018-08-25T19:27:31.443Z,68.90
2018-08-25T19:32:48.682Z,70.40
2018-08-25T19:37:43.606Z,69.10
2018-08-25T19:42:37.799Z,69.80
2018-08-25T19:47:32.621Z,70.20
2018-08-25T19:52:27.104Z,70.70
2018-08-25T19:57:21.963Z,70.90
2018-08-25T20:02:16.393Z,70.80
2018-08-25T20:07:11.025Z,71.40
2018-08-25T20:12:06.337Z,71.40
2018-08-25T20:17:01.210Z,72.30
2018-08-25T20:21:55.369Z,72.90
2018-08-25T20:26:49.957Z,72.30
2018-08-25T20:31:44.426Z,72.60
2018-08-25T20:36:39.754Z,73.60
2018-08-25T20:41:34.291Z,73.90
2018-08-25T20:46:28.960Z,74.20
2018-08-25T20:51:23.588Z,74.20
2018-08-25T20:56:17.890Z,74.10
2018-08-25T21:01:12.172Z,73.40
2018-08-25T21:06:07.182Z,73.60
2018-08-25T21:11:01.741Z,73.40
2018-08-25T21:15:56.597Z,73.60
2018-08-25T21:20:50.997Z,72.40
2018-08-25T21:25:45.635Z,72.50
2018-08-25T21:30:40.309Z,71.90
2018-08-25T21:35:34.690Z,72.40
2018-08-25T21:40:29.524Z,71.80
2018-08-25T21:45:31.182Z,71.80
2018-08-25T21:50:26.116Z,71.80
2018-08-25T21:55:20.478Z,72.00
2018-08-25T22:00:15.270Z,71.70
2018-08-25T22:05:09.620Z,71.90
2018-08-25T22:10:05.015Z,71.70
2018-08-25T22:14:59.659Z,70.60
2018-08-25T22:19:54.335Z,70.90
2018-08-25T22:24:48.693Z,71.00
2018-08-25T22:29:43.286Z,71.60
2018-08-25T22:34:37.600Z,71.90
2018-08-25T22:39:32.201Z,73.00
2018-08-25T22:44:27.328Z,73.20
2018-08-25T22:49:21.803Z,72.60
2018-08-25T22:54:16.286Z,71.70
2018-08-25T22:59:17.598Z,72.40
2018-08-25T23:04:19.262Z,72.40
2018-08-25T23:09:21.168Z,72.20
2018-08-25T23:14:15.895Z,73.40
2018-08-25T23:19:10.392Z,74.00
2018-08-25T23:24:05.306Z,74.20
2018-08-25T23:28:59.658Z,75.00
2018-08-25T23:34:01.091Z,75.50
2018-08-25T23:38:55.308Z,75.60
2018-08-25T23:43:49.748Z,76.00
2018-08-25T23:48:59.153Z,76.60
2018-08-25T23:53:53.740Z,77.50
2018-08-25T23:58:48.948Z,77.90
